Terminal Aerodrome Forecast
Issued by NWS

Current Version | Previous Version | Text Only | Print | Product List | Glossary On
Versions: 1 2 3 4 5 6 7 8 9 10 11 12 13 14 15 16 17
000
FTUS45 KPSR 201700 RRA
TAFIPL
TAF
KIPL 201741Z 2018/2118 VRB05KT P6SM SCT120 BKN200
     FM210300 27010KT P6SM FEW120 SCT250
     FM210900 VRB04KT P6SM BKN200=

USA.gov is the U.S. government's official web portal to all federal, state and local government web resources and services.